Time;durP1;ratioP1;P1;durP2;ratioP2;P2;SDS_P1;SDS_P2;PMS_P1;PMS_P2;Temp;Humidity;BMP_temperature;BMP_pressure;BME280_temperature;BME280_humidity;BME280_pressure;Samples;Min_cycle;Max_cycle;Signal;HPM_P1;HPM_P2
2023/04/02 00:01:50;;;;;;;19.35;8.82;;;5.10;99.90;;;;;;5108433;27;19922;-62
2023/04/02 00:04:22;;;;;;;21.67;9.90;;;5.00;99.90;;;;;;5088294;27;20036;-65
2023/04/02 00:06:54;;;;;;;19.27;9.00;;;5.00;99.90;;;;;;5099048;27;20130;-65
2023/04/02 00:09:34;;;;;;;18.40;8.57;;;5.00;99.90;;;;;;5113843;27;20089;-66
2023/04/02 00:12:14;;;;;;;17.58;8.18;;;4.90;99.90;;;;;;5102022;27;20039;-63
2023/04/02 00:14:47;;;;;;;15.88;9.07;;;4.90;99.90;;;;;;5105461;27;20035;-65
2023/04/02 00:17:15;;;;;;;17.85;10.07;;;4.90;99.90;;;;;;5109757;28;20123;-65
2023/04/02 00:19:48;;;;;;;18.13;9.57;;;4.90;99.90;;;;;;5093254;27;20761;-67
2023/04/02 00:22:34;;;;;;;17.35;8.50;;;4.90;99.90;;;;;;5116067;27;20042;-64
2023/04/02 00:25:06;;;;;;;18.42;9.20;;;4.90;99.90;;;;;;5111616;27;20508;-63
2023/04/02 00:27:32;;;;;;;20.17;9.00;;;4.90;99.90;;;;;;5114342;27;20468;-65
2023/04/02 00:29:58;;;;;;;14.63;9.10;;;4.90;99.90;;;;;;5111218;27;20027;-64
2023/04/02 00:32:27;;;;;;;19.38;9.27;;;4.80;99.90;;;;;;5117071;27;20066;-64
2023/04/02 00:35:00;;;;;;;11.43;7.10;;;4.80;99.90;;;;;;5114054;27;20049;-64
2023/04/02 00:37:37;;;;;;;15.02;8.07;;;4.80;99.90;;;;;;5118880;27;20445;-65
2023/04/02 00:40:21;;;;;;;11.95;6.15;;;4.80;99.90;;;;;;5108943;27;20092;-65
2023/04/02 00:42:48;;;;;;;15.57;9.15;;;4.80;99.90;;;;;;5102626;28;20051;-65
2023/04/02 00:45:20;;;;;;;14.45;8.10;;;4.80;99.90;;;;;;5100642;27;20057;-65
2023/04/02 00:47:47;;;;;;;14.23;7.90;;;4.70;99.90;;;;;;5112764;27;20070;-66
2023/04/02 00:50:13;;;;;;;12.93;8.25;;;4.80;99.90;;;;;;5111437;28;20401;-65
2023/04/02 00:52:42;;;;;;;13.82;8.50;;;4.70;99.90;;;;;;5114297;27;20053;-64
2023/04/02 00:55:34;;;;;;;11.88;7.50;;;4.70;99.90;;;;;;5112397;27;20050;-65
2023/04/02 00:58:02;;;;;;;12.25;7.25;;;4.70;99.90;;;;;;5095912;27;20397;-65
2023/04/02 01:00:34;;;;;;;13.45;7.63;;;4.70;99.90;;;;;;5107920;27;20042;-66
2023/04/02 01:03:18;;;;;;;15.82;7.72;;;4.60;99.90;;;;;;5104414;27;20039;-65
2023/04/02 01:06:18;;;;;;;13.95;7.50;;;4.60;99.90;;;;;;5110562;27;20375;-65
2023/04/02 01:09:06;;;;;;;14.63;7.95;;;4.60;99.90;;;;;;5042394;27;20117;-63
2023/04/02 01:11:40;;;;;;;15.23;8.05;;;4.50;99.90;;;;;;5112084;27;20039;-65
2023/04/02 01:14:06;;;;;;;15.65;6.93;;;4.50;99.90;;;;;;5108274;27;20500;-66
2023/04/02 01:16:35;;;;;;;16.80;7.72;;;4.50;99.90;;;;;;5105936;27;20098;-64
2023/04/02 01:19:26;;;;;;;15.52;7.85;;;4.50;99.90;;;;;;5104457;27;20043;-65
2023/04/02 01:21:59;;;;;;;17.17;8.10;;;4.50;99.90;;;;;;5109670;28;20044;-66
2023/04/02 01:24:30;;;;;;;12.55;7.53;;;4.50;99.90;;;;;;5124957;27;20031;-65
2023/04/02 01:27:17;;;;;;;16.35;8.00;;;4.50;99.90;;;;;;5105783;27;20039;-65
2023/04/02 01:29:52;;;;;;;12.95;7.07;;;4.40;99.90;;;;;;5111537;27;20035;-63
2023/04/02 01:32:20;;;;;;;14.43;7.68;;;4.40;99.90;;;;;;5109249;27;20051;-65
2023/04/02 01:34:51;;;;;;;13.48;7.10;;;4.40;99.90;;;;;;5108191;27;20043;-65
2023/04/02 01:37:26;;;;;;;13.10;7.10;;;4.30;99.90;;;;;;5120828;27;20134;-64
2023/04/02 01:40:13;;;;;;;12.43;7.45;;;4.30;99.90;;;;;;5110380;27;20441;-63
2023/04/02 01:43:22;;;;;;;14.20;7.05;;;4.30;99.90;;;;;;5110368;27;20099;-65
2023/04/02 01:45:49;;;;;;;11.75;6.93;;;4.30;99.90;;;;;;5119218;27;20044;-63
2023/04/02 01:48:23;;;;;;;9.52;5.32;;;4.20;99.90;;;;;;5104825;27;20043;-66
2023/04/02 01:50:53;;;;;;;12.88;6.47;;;4.20;99.90;;;;;;5109267;27;20043;-65
2023/04/02 01:53:21;;;;;;;14.23;6.70;;;4.20;99.90;;;;;;5107242;27;20046;-64
2023/04/02 01:55:51;;;;;;;15.98;6.60;;;4.20;99.90;;;;;;5108665;27;20644;-63
2023/04/02 01:58:24;;;;;;;14.00;7.15;;;4.10;99.90;;;;;;5102799;27;20037;-63
2023/04/02 02:01:15;;;;;;;13.95;7.20;;;4.00;99.90;;;;;;5103651;27;20035;-62
2023/04/02 02:03:42;;;;;;;12.45;7.03;;;4.00;99.90;;;;;;5104383;27;20031;-64
2023/04/02 02:06:13;;;;;;;15.52;6.72;;;3.90;99.90;;;;;;5107551;27;20606;-66
2023/04/02 02:09:03;;;;;;;11.35;6.13;;;3.90;99.90;;;;;;5104698;27;20045;-64
2023/04/02 02:11:31;;;;;;;10.75;6.80;;;3.70;99.90;;;;;;5121708;27;20304;-63
2023/04/02 02:14:00;;;;;;;16.35;7.00;;;3.60;99.90;;;;;;5099199;27;20039;-64
2023/04/02 02:16:28;;;;;;;12.70;6.25;;;3.50;99.90;;;;;;5103515;27;20035;-62
2023/04/02 02:19:00;;;;;;;13.50;6.18;;;3.40;99.90;;;;;;5103564;27;20043;-65
2023/04/02 02:21:47;;;;;;;12.60;6.00;;;3.30;99.90;;;;;;5108000;27;20031;-64
2023/04/02 02:24:25;;;;;;;10.82;5.47;;;3.10;99.90;;;;;;5105155;27;20081;-65
2023/04/02 02:27:25;;;;;;;16.80;6.28;;;3.10;99.90;;;;;;5121886;27;20327;-64
2023/04/02 02:30:04;;;;;;;13.18;5.65;;;2.90;99.90;;;;;;5112000;27;20039;-64
2023/04/02 02:32:31;;;;;;;9.07;5.05;;;2.90;99.90;;;;;;5100579;28;20041;-64
2023/04/02 02:35:11;;;;;;;12.55;5.93;;;2.80;99.90;;;;;;5110277;27;20397;-65
2023/04/02 02:37:58;;;;;;;14.70;5.50;;;2.80;99.90;;;;;;5103397;27;20493;-63
2023/04/02 02:40:35;;;;;;;10.95;5.85;;;2.70;99.90;;;;;;5103175;28;20043;-63
2023/04/02 02:43:06;;;;;;;10.25;5.22;;;2.60;99.90;;;;;;5101597;27;20091;-63
2023/04/02 02:45:37;;;;;;;12.38;5.90;;;2.50;99.90;;;;;;5105171;28;20043;-63
2023/04/02 02:48:09;;;;;;;12.50;5.18;;;2.50;99.90;;;;;;5103300;28;20043;-63
2023/04/02 02:50:35;;;;;;;11.85;5.10;;;2.40;99.90;;;;;;5088121;28;20035;-63
2023/04/02 02:53:21;;;;;;;12.70;6.13;;;2.40;99.90;;;;;;5102559;28;20313;-64
2023/04/02 02:55:51;;;;;;;10.60;4.75;;;2.30;99.90;;;;;;5104204;28;20047;-64
2023/04/02 02:58:22;;;;;;;9.40;4.78;;;2.30;99.90;;;;;;5105852;28;20737;-63
2023/04/02 03:00:49;;;;;;;12.02;5.35;;;2.20;99.90;;;;;;5100953;28;20414;-63
2023/04/02 03:03:25;;;;;;;9.60;4.40;;;2.20;99.90;;;;;;5105940;28;20434;-64
2023/04/02 03:06:04;;;;;;;11.65;5.15;;;2.10;99.90;;;;;;5105812;28;20050;-63
2023/04/02 03:08:42;;;;;;;10.35;4.63;;;2.00;99.90;;;;;;5102984;28;20061;-63
2023/04/02 03:11:28;;;;;;;9.57;5.10;;;2.00;99.90;;;;;;5103086;28;20451;-63
2023/04/02 03:13:59;;;;;;;12.77;5.00;;;2.00;99.90;;;;;;5107267;28;20039;-63
2023/04/02 03:16:39;;;;;;;12.48;4.68;;;2.00;99.90;;;;;;5107345;28;20036;-63
2023/04/02 03:19:23;;;;;;;11.00;4.95;;;1.90;99.90;;;;;;5103502;28;20039;-63
2023/04/02 03:21:54;;;;;;;12.30;4.78;;;1.80;99.90;;;;;;5101041;27;20491;-64
2023/04/02 03:24:46;;;;;;;13.50;4.90;;;1.80;99.90;;;;;;5108215;27;20838;-63
2023/04/02 03:27:18;;;;;;;8.50;4.28;;;1.80;99.90;;;;;;5111744;27;20371;-63
2023/04/02 03:30:02;;;;;;;13.07;4.80;;;1.70;99.90;;;;;;5108426;27;20376;-65
2023/04/02 03:32:33;;;;;;;11.68;5.00;;;1.70;99.90;;;;;;5122305;27;20454;-63
2023/04/02 03:35:23;;;;;;;13.48;4.90;;;1.60;99.90;;;;;;5109083;27;20034;-64
2023/04/02 03:38:05;;;;;;;10.77;4.90;;;1.60;99.90;;;;;;5109133;27;20660;-64
2023/04/02 03:40:40;;;;;;;10.00;4.72;;;1.50;99.90;;;;;;5128679;27;20031;-63
2023/04/02 03:43:20;;;;;;;9.10;4.45;;;1.50;99.90;;;;;;5121085;27;20044;-64
2023/04/02 03:45:51;;;;;;;9.98;4.70;;;1.50;99.90;;;;;;5104664;27;20109;-63
2023/04/02 03:48:53;;;;;;;10.55;4.43;;;1.40;99.90;;;;;;5110740;27;20440;-63
2023/04/02 03:51:35;;;;;;;12.90;4.78;;;1.40;99.90;;;;;;5109036;27;20043;-63
2023/04/02 03:54:01;;;;;;;12.45;4.45;;;1.40;99.90;;;;;;5108651;27;20039;-64
2023/04/02 03:56:38;;;;;;;11.27;4.78;;;1.40;99.90;;;;;;5111006;27;20039;-63
2023/04/02 03:59:12;;;;;;;9.70;4.82;;;1.40;99.90;;;;;;5108241;27;20036;-64
2023/04/02 04:01:52;;;;;;;13.25;5.55;;;1.40;99.90;;;;;;5109632;27;20039;-63
2023/04/02 04:04:20;;;;;;;10.73;4.85;;;1.50;99.90;;;;;;5110410;27;20042;-63
2023/04/02 04:06:51;;;;;;;14.63;5.50;;;1.50;99.90;;;;;;5111478;27;20046;-63
2023/04/02 04:09:28;;;;;;;9.75;4.95;;;1.60;99.90;;;;;;5107157;27;20039;-63
2023/04/02 04:12:24;;;;;;;11.80;4.90;;;1.60;99.90;;;;;;5109829;27;20031;-63
2023/04/02 04:14:57;;;;;;;8.15;4.70;;;1.60;99.90;;;;;;5106929;27;20039;-64
2023/04/02 04:17:37;;;;;;;12.73;5.20;;;1.70;99.90;;;;;;5107857;27;20339;-63
2023/04/02 04:20:14;;;;;;;13.18;5.25;;;1.70;99.90;;;;;;5106705;27;20473;-63
2023/04/02 04:22:40;;;;;;;12.27;5.20;;;1.70;99.90;;;;;;5106841;27;20039;-65
2023/04/02 04:25:21;;;;;;;9.05;5.10;;;1.70;99.90;;;;;;5111285;27;20515;-64
2023/04/02 04:27:57;;;;;;;11.13;5.85;;;1.80;99.90;;;;;;5108550;27;20458;-63
2023/04/02 04:30:47;;;;;;;10.13;4.68;;;1.80;99.90;;;;;;5108806;27;20481;-63
2023/04/02 04:33:27;;;;;;;11.57;5.22;;;1.80;99.90;;;;;;5103528;27;20573;-64
2023/04/02 04:35:58;;;;;;;15.38;5.70;;;1.80;99.90;;;;;;5112022;27;20045;-64
2023/04/02 04:38:32;;;;;;;10.75;5.18;;;1.80;99.90;;;;;;5107634;27;20039;-65
2023/04/02 04:41:03;;;;;;;13.73;5.40;;;1.80;99.90;;;;;;5104741;27;20039;-65
2023/04/02 04:43:43;;;;;;;11.48;4.32;;;1.70;99.90;;;;;;5111499;27;20521;-66
2023/04/02 04:46:13;;;;;;;10.98;4.18;;;1.70;99.90;;;;;;5106611;27;20133;-65
2023/04/02 04:48:55;;;;;;;10.38;4.40;;;1.70;99.90;;;;;;5106234;27;20386;-65
2023/04/02 04:51:24;;;;;;;13.17;4.67;;;1.70;99.90;;;;;;5108976;27;20080;-64
2023/04/02 04:53:53;;;;;;;9.65;4.55;;;1.70;99.90;;;;;;5110672;27;20647;-64
2023/04/02 04:56:24;;;;;;;9.88;4.60;;;1.70;99.90;;;;;;5109105;27;20513;-64
2023/04/02 04:59:01;;;;;;;10.55;4.25;;;1.70;99.90;;;;;;5103769;27;20036;-63
2023/04/02 05:01:37;;;;;;;9.65;4.00;;;1.70;99.90;;;;;;5116459;27;20390;-65
2023/04/02 05:04:15;;;;;;;10.80;4.25;;;1.70;99.90;;;;;;5107220;27;20039;-63
2023/04/02 05:06:49;;;;;;;9.13;4.25;;;1.70;99.90;;;;;;5106391;27;20047;-63
2023/04/02 05:09:30;;;;;;;10.25;3.95;;;1.70;99.90;;;;;;5107380;27;20038;-64
2023/04/02 05:12:16;;;;;;;8.27;3.63;;;1.60;99.90;;;;;;5106188;27;20077;-66
2023/04/02 05:15:00;;;;;;;12.73;3.85;;;1.60;99.90;;;;;;5107747;27;20087;-65
2023/04/02 05:17:32;;;;;;;11.85;4.57;;;1.60;99.90;;;;;;5086926;27;20126;-64
2023/04/02 05:20:20;;;;;;;10.00;4.25;;;1.60;99.90;;;;;;5083150;27;20537;-66
2023/04/02 05:22:55;;;;;;;10.07;3.67;;;1.60;99.90;;;;;;5101992;27;20043;-66
2023/04/02 05:25:26;;;;;;;8.43;4.15;;;1.60;99.90;;;;;;5106649;27;20500;-64
2023/04/02 05:28:05;;;;;;;10.30;3.35;;;1.60;99.90;;;;;;5107231;27;20449;-64
2023/04/02 05:30:45;;;;;;;11.90;4.05;;;1.60;99.90;;;;;;5100968;27;20062;-63
2023/04/02 05:33:32;;;;;;;9.45;3.55;;;1.60;99.90;;;;;;5104588;27;20482;-64
2023/04/02 05:36:00;;;;;;;7.20;3.35;;;1.60;99.90;;;;;;5106320;27;20066;-65
2023/04/02 05:38:29;;;;;;;6.68;3.40;;;1.60;99.90;;;;;;5105823;27;20132;-65
2023/04/02 05:41:26;;;;;;;7.07;3.40;;;1.60;99.90;;;;;;5104417;27;20258;-65
2023/04/02 05:44:13;;;;;;;9.27;3.38;;;1.60;99.90;;;;;;5098017;27;20465;-66
2023/04/02 05:46:49;;;;;;;6.78;2.72;;;1.60;99.90;;;;;;5098424;27;20043;-64
2023/04/02 05:49:32;;;;;;;9.18;3.15;;;1.70;99.90;;;;;;5103601;27;20043;-64
2023/04/02 05:52:01;;;;;;;8.05;3.10;;;1.70;99.90;;;;;;5115514;27;20054;-63
2023/04/02 05:54:58;;;;;;;8.27;3.33;;;1.70;99.90;;;;;;5104622;27;20075;-65
2023/04/02 05:57:32;;;;;;;9.18;3.33;;;1.70;99.90;;;;;;5091751;27;20051;-64
2023/04/02 06:00:02;;;;;;;7.25;3.42;;;1.70;99.90;;;;;;5103187;27;20042;-64
2023/04/02 06:02:40;;;;;;;9.95;3.53;;;1.70;99.90;;;;;;5104684;27;20058;-66
2023/04/02 06:05:15;;;;;;;4.80;2.92;;;1.80;99.90;;;;;;5099807;27;20055;-66
2023/04/02 06:07:49;;;;;;;10.48;3.75;;;1.80;99.90;;;;;;5103002;27;20402;-65
2023/04/02 06:10:22;;;;;;;9.70;2.80;;;1.80;99.90;;;;;;5103463;27;20366;-64
2023/04/02 06:13:02;;;;;;;9.52;2.55;;;1.90;99.90;;;;;;5103192;27;20035;-64
2023/04/02 06:15:28;;;;;;;8.00;2.97;;;1.90;99.90;;;;;;5104239;27;20039;-65
2023/04/02 06:18:07;;;;;;;5.30;2.72;;;1.90;99.90;;;;;;5099548;27;20421;-65
2023/04/02 06:20:33;;;;;;;10.15;2.70;;;2.00;99.90;;;;;;5101571;27;20118;-65
2023/04/02 06:23:29;;;;;;;9.80;2.70;;;2.00;99.90;;;;;;5100869;27;20027;-65
2023/04/02 06:26:35;;;;;;;10.32;2.58;;;2.00;99.90;;;;;;5100090;27;20031;-65
2023/04/02 06:29:39;;;;;;;9.90;2.30;;;2.10;99.90;;;;;;5085710;28;20046;-65
2023/04/02 06:32:12;;;;;;;6.05;1.90;;;2.10;99.90;;;;;;5102485;27;20129;-65
2023/04/02 06:34:40;;;;;;;7.53;1.70;;;2.20;99.90;;;;;;5085672;27;20146;-64
2023/04/02 06:37:27;;;;;;;4.70;2.10;;;2.20;99.90;;;;;;5119513;27;20065;-66
2023/04/02 06:39:53;;;;;;;8.27;2.53;;;2.20;99.90;;;;;;5100406;27;21150;-65
2023/04/02 06:42:23;;;;;;;7.68;2.60;;;2.20;99.90;;;;;;5098674;28;20956;-65
2023/04/02 06:44:49;;;;;;;10.77;2.97;;;2.20;99.90;;;;;;5101790;28;20031;-65
2023/04/02 06:47:30;;;;;;;11.65;2.95;;;2.30;99.90;;;;;;5123614;27;20035;-63
2023/04/02 06:50:22;;;;;;;6.10;2.60;;;2.30;99.90;;;;;;5102204;28;20370;-66
2023/04/02 06:52:50;;;;;;;7.05;2.67;;;2.40;99.90;;;;;;5104760;28;20051;-65
2023/04/02 06:55:43;;;;;;;6.68;3.08;;;2.50;99.90;;;;;;5105104;28;20126;-67
2023/04/02 06:58:11;;;;;;;6.70;2.47;;;2.40;99.90;;;;;;5106746;27;20480;-65
2023/04/02 07:00:42;;;;;;;8.68;2.42;;;2.50;99.90;;;;;;5109654;27;20069;-65
2023/04/02 07:03:28;;;;;;;9.60;3.10;;;2.40;99.90;;;;;;5106059;27;20084;-65
2023/04/02 07:06:02;;;;;;;8.50;2.90;;;2.40;99.90;;;;;;5110323;27;20039;-65
2023/04/02 07:08:27;;;;;;;5.97;2.20;;;2.50;99.90;;;;;;5109895;27;20047;-66
2023/04/02 07:10:55;;;;;;;8.82;2.55;;;2.50;99.90;;;;;;5108708;27;20031;-66
2023/04/02 07:13:22;;;;;;;7.53;2.22;;;2.60;99.90;;;;;;5106912;27;20533;-64
2023/04/02 07:15:51;;;;;;;10.38;2.20;;;2.60;99.90;;;;;;5111789;27;20043;-65
2023/04/02 07:18:24;;;;;;;5.28;1.88;;;2.60;99.90;;;;;;5104263;27;20395;-66
2023/04/02 07:20:50;;;;;;;5.40;1.95;;;2.60;99.90;;;;;;5107584;27;20374;-65
2023/04/02 07:23:15;;;;;;;7.15;1.88;;;2.60;99.90;;;;;;5106955;27;20434;-65
2023/04/02 07:25:41;;;;;;;8.13;2.28;;;2.60;99.90;;;;;;5104242;27;20257;-65
2023/04/02 07:28:06;;;;;;;5.97;2.20;;;2.70;99.90;;;;;;5106615;27;20563;-65
2023/04/02 07:30:32;;;;;;;6.88;2.33;;;2.80;99.90;;;;;;5105013;27;20435;-65
2023/04/02 07:32:57;;;;;;;9.00;2.20;;;2.90;99.90;;;;;;5104806;27;20342;-67
2023/04/02 07:35:23;;;;;;;5.90;2.22;;;2.90;99.90;;;;;;5108855;27;20047;-66
2023/04/02 07:37:49;;;;;;;10.80;2.35;;;2.90;99.90;;;;;;5105514;27;20047;-66
2023/04/02 07:40:17;;;;;;;6.15;2.28;;;2.90;99.90;;;;;;5104883;27;20039;-65
2023/04/02 07:42:43;;;;;;;6.82;2.55;;;3.10;99.90;;;;;;5107265;27;20035;-65
2023/04/02 07:45:09;;;;;;;5.88;2.55;;;3.30;99.90;;;;;;5109521;27;20046;-65
2023/04/02 07:47:35;;;;;;;8.18;2.40;;;3.40;99.90;;;;;;5107438;27;20393;-65
2023/04/02 07:50:00;;;;;;;5.13;2.20;;;3.60;99.90;;;;;;5109428;27;20035;-66
2023/04/02 07:52:26;;;;;;;8.88;2.25;;;3.60;99.90;;;;;;5107292;27;20054;-65
2023/04/02 07:54:51;;;;;;;8.35;1.92;;;3.60;99.90;;;;;;5105622;27;20039;-66
2023/04/02 07:57:17;;;;;;;7.28;2.05;;;3.50;99.90;;;;;;5106621;27;20051;-65
2023/04/02 07:59:42;;;;;;;5.32;2.40;;;3.50;99.90;;;;;;5102904;27;20046;-65
2023/04/02 08:02:19;;;;;;;9.43;2.17;;;3.50;99.90;;;;;;5103478;27;20039;-65
2023/04/02 08:04:46;;;;;;;7.85;1.80;;;3.50;99.90;;;;;;5107441;27;20515;-65
2023/04/02 08:07:11;;;;;;;7.50;1.98;;;3.40;99.90;;;;;;5104588;27;20111;-64
2023/04/02 08:09:37;;;;;;;4.90;1.90;;;3.30;99.90;;;;;;5104900;27;20035;-66
2023/04/02 08:12:02;;;;;;;7.22;1.70;;;3.30;99.90;;;;;;5101978;27;20051;-66
2023/04/02 08:14:28;;;;;;;5.70;1.85;;;3.40;99.90;;;;;;5109336;27;20050;-66
2023/04/02 08:16:54;;;;;;;6.57;1.88;;;3.50;99.90;;;;;;5108759;27;20042;-66
2023/04/02 08:19:20;;;;;;;11.45;1.70;;;3.80;99.90;;;;;;5104822;27;20070;-65
2023/04/02 08:21:49;;;;;;;8.50;2.30;;;4.00;99.90;;;;;;5104874;27;20035;-66
2023/04/02 08:24:17;;;;;;;6.70;1.58;;;4.10;99.90;;;;;;5086766;27;20277;-66
2023/04/02 08:26:46;;;;;;;4.88;1.70;;;4.20;99.90;;;;;;5102128;27;20054;-66
2023/04/02 08:29:12;;;;;;;2.85;1.83;;;4.40;99.90;;;;;;5104990;27;20039;-66
2023/04/02 08:31:38;;;;;;;6.13;1.70;;;4.50;99.90;;;;;;5127481;27;20092;-66
2023/04/02 08:34:03;;;;;;;7.43;1.80;;;4.60;99.90;;;;;;5112625;27;20031;-66
2023/04/02 08:36:33;;;;;;;4.60;1.73;;;4.60;99.90;;;;;;5113424;27;20042;-66
2023/04/02 08:38:59;;;;;;;5.47;1.45;;;4.60;99.90;;;;;;5103204;27;20035;-66
2023/04/02 08:41:26;;;;;;;6.53;1.48;;;4.50;99.90;;;;;;5107927;27;20077;-66
2023/04/02 08:44:20;;;;;;;5.47;1.58;;;4.50;99.90;;;;;;5108767;27;20122;-66
2023/04/02 08:46:54;;;;;;;6.60;2.55;;;4.50;99.90;;;;;;5109130;27;20422;-66
2023/04/02 08:49:38;;;;;;;4.82;1.48;;;4.50;99.90;;;;;;5108576;27;20043;-67
2023/04/02 08:52:04;;;;;;;4.40;1.50;;;4.60;99.90;;;;;;5112387;27;20050;-65
2023/04/02 08:54:42;;;;;;;3.83;1.42;;;4.60;99.90;;;;;;5099402;27;20043;-65
2023/04/02 08:57:38;;;;;;;5.53;1.55;;;4.70;99.90;;;;;;5114174;27;20512;-66
2023/04/02 09:00:09;;;;;;;5.95;1.83;;;4.70;99.90;;;;;;5104561;27;20054;-66
2023/04/02 09:02:40;;;;;;;7.35;1.75;;;4.80;99.90;;;;;;5102758;27;20046;-65
2023/04/02 09:05:14;;;;;;;7.40;2.00;;;4.90;99.90;;;;;;5106905;27;20046;-66
2023/04/02 09:07:40;;;;;;;3.67;1.60;;;5.10;99.90;;;;;;5098069;27;20035;-64
2023/04/02 09:10:15;;;;;;;5.00;1.85;;;5.20;99.90;;;;;;5102276;27;20371;-65
2023/04/02 09:12:42;;;;;;;6.20;1.80;;;5.20;99.90;;;;;;5106408;27;20344;-65
2023/04/02 09:15:28;;;;;;;3.65;1.60;;;5.20;99.90;;;;;;5106933;27;20093;-67
2023/04/02 09:18:12;;;;;;;3.90;1.40;;;5.20;99.90;;;;;;5098815;27;20047;-65
2023/04/02 09:20:38;;;;;;;4.78;1.52;;;5.20;99.90;;;;;;5105126;27;20037;-64
2023/04/02 09:23:04;;;;;;;14.13;2.22;;;5.20;99.90;;;;;;5098579;27;20042;-65
2023/04/02 09:25:32;;;;;;;6.82;1.73;;;5.20;99.90;;;;;;5123055;27;20042;-64
2023/04/02 09:28:02;;;;;;;5.75;1.70;;;5.30;99.90;;;;;;5103623;27;20069;-65
2023/04/02 09:31:17;;;;;;;7.07;1.95;;;5.30;99.90;;;;;;5106388;27;21390;-66
2023/04/02 09:33:48;;;;;;;6.22;1.80;;;5.40;99.90;;;;;;5101023;27;20058;-65
2023/04/02 09:36:30;;;;;;;5.72;1.70;;;5.50;99.90;;;;;;5112466;27;20066;-66
2023/04/02 09:38:59;;;;;;;6.57;1.83;;;5.60;99.90;;;;;;5091531;28;20130;-66
2023/04/02 09:41:27;;;;;;;5.35;1.83;;;5.80;99.90;;;;;;5102533;27;20496;-66
2023/04/02 09:44:17;;;;;;;8.45;2.22;;;5.80;99.90;;;;;;5108391;27;20067;-66
2023/04/02 09:46:58;;;;;;;4.53;1.60;;;6.00;99.90;;;;;;5105052;27;20043;-66
2023/04/02 09:49:33;;;;;;;7.20;1.60;;;6.20;99.90;;;;;;5105957;27;20049;-65
2023/04/02 09:52:16;;;;;;;4.10;1.42;;;6.30;99.90;;;;;;5112740;27;20046;-66
2023/04/02 09:54:42;;;;;;;3.97;1.80;;;6.30;99.90;;;;;;5104419;27;20088;-66
2023/04/02 09:57:22;;;;;;;7.45;1.80;;;6.30;99.90;;;;;;5105942;27;20427;-66
2023/04/02 10:00:12;;;;;;;6.50;1.70;;;6.40;99.90;;;;;;5104672;27;21933;-65
2023/04/02 10:02:39;;;;;;;7.47;1.70;;;6.40;99.90;;;;;;5092168;27;20118;-67
2023/04/02 10:05:14;;;;;;;3.35;1.70;;;6.40;99.90;;;;;;5100414;27;20047;-68
2023/04/02 10:07:47;;;;;;;4.93;1.60;;;6.40;99.90;;;;;;5112698;27;20571;-66
2023/04/02 10:10:37;;;;;;;3.22;1.70;;;6.40;99.90;;;;;;5092275;28;20050;-66
2023/04/02 10:13:15;;;;;;;6.13;1.67;;;6.30;99.90;;;;;;5104702;27;20074;-66
2023/04/02 10:15:54;;;;;;;5.10;1.58;;;6.30;99.90;;;;;;5100720;27;20713;-67
2023/04/02 10:18:36;;;;;;;5.20;1.70;;;6.40;99.90;;;;;;5103001;27;20106;-65
2023/04/02 10:21:04;;;;;;;3.85;1.60;;;6.60;99.90;;;;;;5108283;27;20124;-65
2023/04/02 10:23:31;;;;;;;4.47;1.73;;;6.60;99.90;;;;;;5111422;27;20043;-65
2023/04/02 10:26:14;;;;;;;6.57;1.80;;;6.70;99.90;;;;;;5109692;27;20042;-67
2023/04/02 10:29:08;;;;;;;5.05;1.70;;;6.70;99.90;;;;;;5105218;27;20464;-65
2023/04/02 10:31:46;;;;;;;5.22;1.55;;;6.80;99.90;;;;;;5101266;27;20054;-66
2023/04/02 10:34:22;;;;;;;3.78;1.60;;;6.90;99.90;;;;;;5114314;27;20435;-68
2023/04/02 10:36:58;;;;;;;4.25;1.45;;;7.00;99.90;;;;;;5098556;28;20044;-67
2023/04/02 10:39:28;;;;;;;6.30;1.67;;;7.10;99.90;;;;;;5125264;27;20063;-67
2023/04/02 10:42:20;;;;;;;5.35;1.67;;;7.20;99.90;;;;;;5111111;27;20038;-68
2023/04/02 10:45:16;;;;;;;8.13;1.63;;;7.20;99.90;;;;;;5104658;28;20039;-67
2023/04/02 10:47:57;;;;;;;3.30;1.55;;;7.20;99.90;;;;;;5108138;28;20083;-65
2023/04/02 10:50:35;;;;;;;5.30;1.70;;;7.30;99.90;;;;;;5111657;28;20039;-66
2023/04/02 10:53:08;;;;;;;4.63;1.70;;;7.40;99.90;;;;;;5107952;28;20035;-67
2023/04/02 10:55:42;;;;;;;5.22;1.60;;;7.40;99.90;;;;;;5109929;28;20083;-66
2023/04/02 10:58:25;;;;;;;4.45;1.63;;;7.50;99.90;;;;;;5086329;27;20039;-67
2023/04/02 11:00:55;;;;;;;2.38;1.33;;;7.50;99.90;;;;;;5101715;28;20080;-68
2023/04/02 11:03:36;;;;;;;4.28;1.42;;;7.50;99.90;;;;;;5105533;28;20039;-66
2023/04/02 11:06:17;;;;;;;4.03;1.50;;;7.60;99.90;;;;;;5109659;27;20042;-68
2023/04/02 11:08:46;;;;;;;3.75;1.42;;;7.60;99.90;;;;;;5107192;27;20092;-65
2023/04/02 11:11:19;;;;;;;6.40;1.30;;;7.70;99.90;;;;;;5109292;28;20074;-65
2023/04/02 11:14:08;;;;;;;4.32;1.40;;;7.80;99.90;;;;;;5100000;28;20088;-66
2023/04/02 11:16:33;;;;;;;5.28;1.60;;;7.80;99.90;;;;;;5107220;27;20035;-65
2023/04/02 11:19:17;;;;;;;4.35;1.27;;;7.80;99.90;;;;;;5108061;28;20039;-65
2023/04/02 11:21:56;;;;;;;5.68;1.17;;;7.90;99.90;;;;;;5109252;28;20045;-64
2023/04/02 11:24:28;;;;;;;4.20;1.30;;;7.90;99.90;;;;;;5101272;28;20134;-66
2023/04/02 11:27:09;;;;;;;;;;;8.00;99.90;;;;;;5105830;28;20059;-65
2023/04/02 11:29:37;;;;;;;10.57;1.70;;;8.10;99.90;;;;;;5095045;27;20285;-65
2023/04/02 11:32:26;;;;;;;3.38;1.20;;;8.20;99.90;;;;;;5100730;28;20645;-67
2023/04/02 11:34:54;;;;;;;6.60;1.88;;;8.10;99.90;;;;;;5103841;27;20080;-66
2023/04/02 11:37:43;;;;;;;5.15;1.50;;;8.20;99.90;;;;;;5103038;28;20291;-65
2023/04/02 11:40:14;;;;;;;5.25;1.30;;;8.30;99.90;;;;;;5125449;27;20046;-65
2023/04/02 11:42:48;;;;;;;6.05;1.67;;;8.40;99.90;;;;;;5122783;27;20066;-65
2023/04/02 11:45:20;;;;;;;6.60;1.58;;;8.50;99.90;;;;;;5115825;27;20496;-65
2023/04/02 11:48:02;;;;;;;3.17;1.20;;;8.60;99.90;;;;;;5106693;27;20070;-66
2023/04/02 11:50:32;;;;;;;3.85;1.40;;;8.50;99.90;;;;;;5108630;28;20122;-65
2023/04/02 11:53:03;;;;;;;4.20;1.20;;;8.60;99.90;;;;;;5106191;27;20049;-66
2023/04/02 11:55:32;;;;;;;4.88;1.67;;;8.60;99.90;;;;;;5105360;27;20049;-65
2023/04/02 11:58:29;;;;;;;5.35;1.90;;;8.70;99.90;;;;;;5097054;27;20995;-66
2023/04/02 12:01:32;;;;;;;2.92;1.35;;;8.80;99.90;;;;;;5106472;27;20419;-65
2023/04/02 12:04:14;;;;;;;5.93;1.30;;;8.70;99.90;;;;;;5110688;27;20791;-64
2023/04/02 12:06:49;;;;;;;3.03;1.15;;;8.80;99.90;;;;;;5104832;27;20039;-67
2023/04/02 12:09:23;;;;;;;3.13;1.45;;;8.80;99.90;;;;;;5107051;27;20066;-65
2023/04/02 12:12:13;;;;;;;3.85;1.30;;;8.90;99.90;;;;;;5104142;27;20042;-65
2023/04/02 12:14:47;;;;;;;4.50;1.42;;;8.90;99.90;;;;;;5123265;27;20163;-65
2023/04/02 12:17:38;;;;;;;2.85;1.20;;;8.90;99.90;;;;;;5123707;27;20036;-65
2023/04/02 12:20:08;;;;;;;3.70;1.20;;;9.00;99.90;;;;;;5103539;27;20069;-66
2023/04/02 12:22:55;;;;;;;2.30;1.30;;;9.10;99.90;;;;;;5104006;27;20938;-65
2023/04/02 12:25:30;;;;;;;3.90;1.40;;;9.00;99.90;;;;;;5105742;27;20051;-67
2023/04/02 12:28:18;;;;;;;2.78;1.45;;;9.00;99.90;;;;;;5111686;27;20046;-66
2023/04/02 12:30:49;;;;;;;6.80;1.60;;;9.10;99.90;;;;;;5101229;27;20082;-67
2023/04/02 12:33:21;;;;;;;5.10;1.45;;;9.10;99.90;;;;;;5097921;27;20043;-67
2023/04/02 12:35:49;;;;;;;4.03;1.20;;;9.10;99.90;;;;;;5077816;28;20521;-65
2023/04/02 12:38:26;;;;;;;3.50;1.33;;;9.20;99.90;;;;;;5109428;27;20046;-67
2023/04/02 12:40:58;;;;;;;5.13;1.63;;;9.20;99.90;;;;;;5118386;27;20035;-64
2023/04/02 12:43:28;;;;;;;3.92;1.23;;;9.20;99.90;;;;;;5102876;27;20074;-64
2023/04/02 12:45:59;;;;;;;2.97;1.38;;;9.30;99.90;;;;;;5101268;27;20078;-68
2023/04/02 12:48:27;;;;;;;1.92;0.90;;;9.30;99.90;;;;;;5124631;27;20088;-66
2023/04/02 12:50:53;;;;;;;4.47;1.20;;;9.30;99.90;;;;;;5108578;27;20039;-64
2023/04/02 12:53:40;;;;;;;5.50;1.73;;;9.40;99.90;;;;;;5106115;27;20545;-66
2023/04/02 12:56:07;;;;;;;6.10;1.73;;;9.40;99.90;;;;;;5105107;27;20091;-66
2023/04/02 12:58:36;;;;;;;2.97;1.30;;;9.50;99.90;;;;;;5104527;27;20042;-66
2023/04/02 13:01:09;;;;;;;4.32;1.35;;;9.50;99.90;;;;;;5109524;27;20096;-66
2023/04/02 13:03:34;;;;;;;3.42;1.30;;;9.60;99.90;;;;;;5112763;27;20039;-67
2023/04/02 13:06:00;;;;;;;5.10;1.63;;;9.60;99.90;;;;;;5111549;27;20474;-66
2023/04/02 13:08:29;;;;;;;4.70;1.33;;;9.60;99.90;;;;;;5108821;27;20043;-66
2023/04/02 13:11:00;;;;;;;3.38;1.30;;;9.70;99.90;;;;;;5106962;27;20081;-67
2023/04/02 13:13:32;;;;;;;2.90;1.10;;;9.80;99.90;;;;;;5111375;27;20035;-66
2023/04/02 13:16:08;;;;;;;5.43;1.30;;;9.90;99.90;;;;;;5110611;27;20047;-66
2023/04/02 13:18:36;;;;;;;3.15;1.38;;;9.80;99.90;;;;;;5093969;27;20039;-66
2023/04/02 13:21:28;;;;;;;6.65;1.50;;;9.70;99.90;;;;;;5109500;27;20390;-66
2023/04/02 13:23:54;;;;;;;5.37;1.50;;;9.80;99.90;;;;;;5083921;27;20047;-66
2023/04/02 13:26:23;;;;;;;5.05;1.60;;;9.90;99.90;;;;;;5127128;27;20046;-66
2023/04/02 13:29:17;;;;;;;5.40;1.58;;;9.90;99.90;;;;;;5105402;27;20043;-65
2023/04/02 13:31:42;;;;;;;4.85;1.20;;;10.00;99.90;;;;;;5114604;27;20043;-68
2023/04/02 13:34:08;;;;;;;8.40;1.95;;;10.00;99.90;;;;;;5097960;27;20163;-65
2023/04/02 13:36:33;;;;;;;3.97;1.40;;;10.00;99.90;;;;;;5108807;27;20073;-67